• Join FlightAware (Why Join?)
  • Login
  • US Flag 
07:31PM EST


 

Airport Tracker/Info


-or-


 

Live Flight TrackerFlight Track Log ✈ TAM3520 ✈ 10-Feb-2014 ✈ SBBR / BSB - SBSV / SSA

Flight Track Log - Related Links

Times and Time Zones

All times are in EST time to prevent confusion due to time zone crossing. See the TAM3520 flight status page for this flight to view local times or setup timezone preferences in your user account.

Time Position Orientation Groundspeed Altitude Reporting Facility
EST Latitude Longitude Course Direction KTS MPH feet Rate Location/Type
09:34PM -15.3979 -46.2967 74° East  Level Estimated
09:35PM -15.3702 -46.2019 73° East  Level Estimated
09:36PM -15.3424 -46.1071 73° East  Level Estimated
09:37PM -15.3146 -46.0123 73° East  Level Estimated
09:38PM -15.2868 -45.9176 73° East  Level Estimated
09:39PM -15.2590 -45.8228 73° East  Level Estimated
09:40PM -15.2311 -45.7281 73° East  Level Estimated
09:41PM -15.2031 -45.6335 73° East  Level Estimated
09:42PM -15.1751 -45.5388 73° East  Level Estimated
09:43PM -15.1471 -45.4442 73° East  Level Estimated
09:44PM -15.1191 -45.3496 73° East  Level Estimated
09:45PM -15.0910 -45.2550 73° East  Level Estimated
09:46PM -15.0628 -45.1604 73° East  Level Estimated
09:47PM -15.0346 -45.0659 73° East  Level Estimated
09:48PM -15.0064 -44.9714 73° East  Level Estimated
09:49PM -14.9782 -44.8769 73° East  Level Estimated
09:50PM -14.9499 -44.7825 73° East  Level Estimated
09:51PM -14.9215 -44.6881 73° East  Level Estimated
09:52PM -14.8932 -44.5937 73° East  Level Estimated
09:53PM -14.8648 -44.4993 73° East  Level Estimated
09:54PM -14.8363 -44.4049 73° East  Level Estimated
09:55PM -14.8078 -44.3106 73° East  Level Estimated
09:56PM -14.7793 -44.2163 73° East  Level Estimated
09:57PM -14.7507 -44.1220 73° East  Level Estimated
09:58PM -14.7221 -44.0278 73° East  Level Estimated
09:59PM -14.6935 -43.9335 73° East  Level Estimated
10:00PM -14.6648 -43.8393 73° East  Level Estimated
10:01PM -14.6361 -43.7452 73° East  Level Estimated
10:02PM -14.6074 -43.6510 72° East  Level Estimated
10:03PM -14.5786 -43.5569 72° East  Level Estimated
10:04PM -14.5497 -43.4628 72° East  Level Estimated
10:05PM -14.5209 -43.3687 72° East  Level Estimated
10:06PM -14.4920 -43.2746 72° East  Level Estimated
10:07PM -14.4630 -43.1806 72° East  Level Estimated
10:08PM -14.4340 -43.0866 72° East  Level Estimated
10:09PM -14.4050 -42.9926 72° East  Level Estimated
10:10PM -14.3760 -42.8987 72° East  Level Estimated
10:11PM -14.3469 -42.8047 72° East  Level Estimated
10:12PM -14.3177 -42.7108 72° East  Level Estimated
10:13PM -14.2886 -42.6169 72° East  Level Estimated
10:14PM -14.2594 -42.5231 72° East  Level Estimated
10:15PM -14.2302 -42.4292 72° East  Level Estimated
10:16PM -14.2009 -42.3354 72° East  Level Estimated
10:17PM -14.1716 -42.2416 72° East  Level Estimated
10:18PM -14.1422 -42.1479 72° East  Level Estimated
10:19PM -14.1128 -42.0541 72° East  Level Estimated
10:20PM -14.0834 -41.9604 72° East  Level Estimated
10:21PM -14.0540 -41.8667 72° East  Level Estimated
10:22PM -14.0245 -41.7731 72° East  Level Estimated
10:23PM -13.9949 -41.6794 72° East  Level Estimated
10:24PM -13.9654 -41.5858 72° East  Level Estimated
10:25PM -13.9358 -41.4922 72° East  Level Estimated
10:26PM -13.9061 -41.3987 72° East  Level Estimated
10:27PM -13.8765 -41.3051 72° East  Level Estimated
10:28PM -13.8468 -41.2116 72° East  Level Estimated
10:29PM -13.8170 -41.1181 72° East  Level Estimated
10:30PM -13.7872 -41.0246 72° East  Level Estimated
10:31PM -13.7574 -40.9312 72° East  Level Estimated
10:32PM -13.7276 -40.8377 72° East  Level Estimated
10:33PM -13.6977 -40.7443 72° East  Level Estimated
10:34PM -13.6678 -40.6510 72° East  Level Estimated
10:35PM -13.6378 -40.5576 72° East  Level Estimated
10:36PM -13.6078 -40.4643 72° East  Level Estimated
10:37PM -13.5778 -40.3710 72° East  Level Estimated
10:38PM -13.5478 -40.2777 72° East  Level Estimated
10:39PM -13.5177 -40.1844 72° East  Level Estimated
10:40PM -13.4875 -40.0912 72° East  Level Estimated
10:41PM -13.4574 -39.9980 72° East  Level Estimated
10:42PM -13.4272 -39.9048 72° East  Level Estimated
10:43PM -13.3969 -39.8116 72° East  Level Estimated
10:44PM -13.3667 -39.7185 72° East  Level Estimated
10:45PM -13.3364 -39.6254 72° East  Level Estimated
10:46PM -13.3061 -39.5322 71° East  Level Estimated
10:47PM -13.2757 -39.4392 71° East  Level Estimated
10:48PM -13.2453 -39.3461 71° East  Level Estimated
10:49PM -13.2149 -39.2531 71° East  Level Estimated
10:50PM -13.1844 -39.1601 71° East  Level Estimated
10:51PM -13.1539 -39.0671 71° East  Level Estimated
10:52PM -13.1234 -38.9742 71° East  Level Estimated
10:53PM -13.0928 -38.8812 71° East  Level Estimated
10:54PM -13.0622 -38.7883 71° East  Level Estimated
10:55PM -13.0316 -38.6954 71° East  Level Estimated
10:56PM -13.0009 -38.6026 71° East  Level Estimated
10:57PM -12.9702 -38.5097 71° East  Level Estimated
10:58PM -12.9395 -38.4169 71° East  Level Estimated
10:59PM -12.9110 -38.3310 71° East  Level Estimated
11:00PM -12.9110 -38.3310 224° Southwest  Level Estimated
11:01PM -12.9110 -38.3310 224° Southwest  Level Estimated
11:02PM -12.9110 -38.3310 224° Southwest  Level Estimated
11:03PM -12.9110 -38.3310 224° Southwest  Level Estimated
11:04PM -12.9110 -38.3310 224° Southwest  Level Estimated
11:05PM -12.9110 -38.3310 224° Southwest  Level Estimated
11:06PM -12.9110 -38.3310 224° Southwest  Level Estimated
11:07PM -12.9110 -38.3310 224° Southwest  Level Estimated
11:08PM -12.9110 -38.3310 224° Southwest  Level Estimated
11:09PM -12.9110 -38.3310 224° Southwest  Level Estimated
11:10PM -12.9110 -38.3310 224° Southwest  Level Estimated
11:11PM -12.9110 -38.3310 224° Southwest  Level Estimated
11:12PM -12.9110 -38.3310 224° Southwest  Level Estimated
11:13PM -12.9110 -38.3310 224° Southwest  Level Estimated
11:14PM -12.9110 -38.3310 224° Southwest  Level Estimated
11:15PM -12.9110 -38.3310 224° Southwest  Level Estimated